TAF LFRJ
METAR LFRJ
LFRJ 080400Z AUTO 22012KT 9999 FEW035/// SCT042/// BKN048/// ///TCU 04/02 Q0995=
LFRJ 080330Z AUTO 21011KT 9999 FEW037 SCT210 04/02 Q0995=
LFRJ 080300Z AUTO 21010KT 9999 FEW037 BKN180 OVC220 04/02 Q0995=
LFRJ 080230Z AUTO 21012KT 9999 -RADZ FEW034 SCT050 BKN072 04/03 Q0995=
LFRJ 080200Z AUTO 21008KT 9999 -RA SCT039 SCT052 BKN070 03/02 Q0995=
WC LFRJ
WS LFRJ
WV LFRJ